sensor_id;sensor_type;location;lat;lon;timestamp;P1;durP1;ratioP1;P2;durP2;ratioP2
57319;SDS011;43158;51.026;18.190;2022-09-01T00:00:47;4.40;;;3.10;;
57319;SDS011;43158;51.026;18.190;2022-09-01T00:03:15;5.00;;;3.60;;
57319;SDS011;43158;51.026;18.190;2022-09-01T00:05:43;5.10;;;3.50;;
57319;SDS011;43158;51.026;18.190;2022-09-01T00:08:13;6.00;;;3.50;;
57319;SDS011;43158;51.026;18.190;2022-09-01T00:13:06;5.80;;;3.10;;
57319;SDS011;43158;51.026;18.190;2022-09-01T00:15:33;6.60;;;3.30;;
57319;SDS011;43158;51.026;18.190;2022-09-01T00:18:00;4.30;;;3.50;;
57319;SDS011;43158;51.026;18.190;2022-09-01T00:20:26;4.20;;;3.30;;
57319;SDS011;43158;51.026;18.190;2022-09-01T00:22:53;6.80;;;3.30;;
57319;SDS011;43158;51.026;18.190;2022-09-01T00:25:20;4.20;;;2.90;;
57319;SDS011;43158;51.026;18.190;2022-09-01T00:27:47;4.40;;;3.30;;
57319;SDS011;43158;51.026;18.190;2022-09-01T00:30:14;5.90;;;3.20;;
57319;SDS011;43158;51.026;18.190;2022-09-01T00:32:41;7.30;;;3.60;;
57319;SDS011;43158;51.026;18.190;2022-09-01T00:35:12;5.90;;;3.40;;
57319;SDS011;43158;51.026;18.190;2022-09-01T00:37:39;4.70;;;3.70;;
57319;SDS011;43158;51.026;18.190;2022-09-01T00:40:07;4.80;;;3.60;;
57319;SDS011;43158;51.026;18.190;2022-09-01T00:42:34;4.50;;;3.20;;
57319;SDS011;43158;51.026;18.190;2022-09-01T00:45:01;5.00;;;3.70;;
57319;SDS011;43158;51.026;18.190;2022-09-01T00:47:28;4.10;;;3.40;;
57319;SDS011;43158;51.026;18.190;2022-09-01T00:49:55;4.00;;;3.30;;
57319;SDS011;43158;51.026;18.190;2022-09-01T00:52:29;5.10;;;3.30;;
57319;SDS011;43158;51.026;18.190;2022-09-01T00:55:02;4.60;;;3.00;;
57319;SDS011;43158;51.026;18.190;2022-09-01T00:57:33;3.80;;;3.40;;
57319;SDS011;43158;51.026;18.190;2022-09-01T01:00:03;6.10;;;3.50;;
57319;SDS011;43158;51.026;18.190;2022-09-01T01:02:36;7.50;;;4.20;;
57319;SDS011;43158;51.026;18.190;2022-09-01T01:05:04;6.10;;;3.60;;
57319;SDS011;43158;51.026;18.190;2022-09-01T01:07:32;7.40;;;3.10;;
57319;SDS011;43158;51.026;18.190;2022-09-01T01:10:05;4.30;;;3.50;;
57319;SDS011;43158;51.026;18.190;2022-09-01T01:12:32;4.90;;;4.00;;
57319;SDS011;43158;51.026;18.190;2022-09-01T01:15:00;4.10;;;3.30;;
57319;SDS011;43158;51.026;18.190;2022-09-01T01:17:27;7.20;;;3.30;;
57319;SDS011;43158;51.026;18.190;2022-09-01T01:19:54;4.90;;;3.50;;
57319;SDS011;43158;51.026;18.190;2022-09-01T01:25:28;5.70;;;3.20;;
57319;SDS011;43158;51.026;18.190;2022-09-01T01:28:11;3.70;;;3.30;;
57319;SDS011;43158;51.026;18.190;2022-09-01T01:30:44;4.90;;;3.20;;
57319;SDS011;43158;51.026;18.190;2022-09-01T01:33:20;5.80;;;3.30;;
57319;SDS011;43158;51.026;18.190;2022-09-01T01:35:48;6.30;;;3.20;;
57319;SDS011;43158;51.026;18.190;2022-09-01T01:38:16;4.50;;;2.70;;
57319;SDS011;43158;51.026;18.190;2022-09-01T01:40:45;3.30;;;2.40;;
57319;SDS011;43158;51.026;18.190;2022-09-01T01:43:11;2.90;;;2.30;;
57319;SDS011;43158;51.026;18.190;2022-09-01T01:45:51;3.10;;;2.60;;
57319;SDS011;43158;51.026;18.190;2022-09-01T01:48:19;6.70;;;3.10;;
57319;SDS011;43158;51.026;18.190;2022-09-01T01:50:51;2.90;;;2.40;;
57319;SDS011;43158;51.026;18.190;2022-09-01T01:53:18;5.30;;;2.50;;
57319;SDS011;43158;51.026;18.190;2022-09-01T01:55:45;3.30;;;2.80;;
57319;SDS011;43158;51.026;18.190;2022-09-01T01:58:15;2.30;;;2.10;;
57319;SDS011;43158;51.026;18.190;2022-09-01T02:00:44;4.50;;;3.40;;
57319;SDS011;43158;51.026;18.190;2022-09-01T02:03:16;4.30;;;2.90;;
57319;SDS011;43158;51.026;18.190;2022-09-01T02:05:44;4.90;;;2.60;;
57319;SDS011;43158;51.026;18.190;2022-09-01T02:08:11;2.90;;;2.40;;
57319;SDS011;43158;51.026;18.190;2022-09-01T02:10:44;3.20;;;2.80;;
57319;SDS011;43158;51.026;18.190;2022-09-01T02:13:11;3.20;;;2.30;;
57319;SDS011;43158;51.026;18.190;2022-09-01T02:15:42;3.10;;;2.30;;
57319;SDS011;43158;51.026;18.190;2022-09-01T02:20:39;7.10;;;2.40;;
57319;SDS011;43158;51.026;18.190;2022-09-01T02:23:06;2.70;;;2.50;;
57319;SDS011;43158;51.026;18.190;2022-09-01T02:25:37;3.10;;;2.40;;
57319;SDS011;43158;51.026;18.190;2022-09-01T02:28:07;4.30;;;2.40;;
57319;SDS011;43158;51.026;18.190;2022-09-01T02:30:37;3.40;;;2.20;;
57319;SDS011;43158;51.026;18.190;2022-09-01T02:33:06;6.50;;;2.30;;
57319;SDS011;43158;51.026;18.190;2022-09-01T02:35:34;4.60;;;2.50;;
57319;SDS011;43158;51.026;18.190;2022-09-01T02:38:03;5.00;;;3.20;;
57319;SDS011;43158;51.026;18.190;2022-09-01T02:40:30;3.50;;;2.40;;
57319;SDS011;43158;51.026;18.190;2022-09-01T02:42:57;4.40;;;2.30;;
57319;SDS011;43158;51.026;18.190;2022-09-01T02:45:25;4.00;;;2.60;;
57319;SDS011;43158;51.026;18.190;2022-09-01T02:47:55;3.30;;;2.60;;
57319;SDS011;43158;51.026;18.190;2022-09-01T02:50:22;3.50;;;2.30;;
57319;SDS011;43158;51.026;18.190;2022-09-01T02:52:49;3.40;;;2.40;;
57319;SDS011;43158;51.026;18.190;2022-09-01T02:55:19;6.20;;;2.80;;
57319;SDS011;43158;51.026;18.190;2022-09-01T02:57:48;9.30;;;2.50;;
57319;SDS011;43158;51.026;18.190;2022-09-01T03:00:15;3.50;;;2.50;;
57319;SDS011;43158;51.026;18.190;2022-09-01T03:02:48;4.50;;;2.10;;
57319;SDS011;43158;51.026;18.190;2022-09-01T03:05:18;3.40;;;2.40;;
57319;SDS011;43158;51.026;18.190;2022-09-01T03:08:01;5.00;;;3.20;;
57319;SDS011;43158;51.026;18.190;2022-09-01T03:10:30;3.50;;;2.50;;
57319;SDS011;43158;51.026;18.190;2022-09-01T03:13:00;4.20;;;2.00;;
57319;SDS011;43158;51.026;18.190;2022-09-01T03:15:28;3.10;;;2.20;;
57319;SDS011;43158;51.026;18.190;2022-09-01T03:17:55;3.90;;;2.60;;
57319;SDS011;43158;51.026;18.190;2022-09-01T03:20:24;4.40;;;2.60;;
57319;SDS011;43158;51.026;18.190;2022-09-01T03:22:50;5.30;;;1.80;;
57319;SDS011;43158;51.026;18.190;2022-09-01T03:25:17;4.30;;;2.50;;
57319;SDS011;43158;51.026;18.190;2022-09-01T03:27:44;3.10;;;2.80;;
57319;SDS011;43158;51.026;18.190;2022-09-01T03:30:12;4.60;;;2.40;;
57319;SDS011;43158;51.026;18.190;2022-09-01T03:32:39;4.00;;;2.10;;
57319;SDS011;43158;51.026;18.190;2022-09-01T03:35:05;2.20;;;2.00;;
57319;SDS011;43158;51.026;18.190;2022-09-01T03:37:33;4.20;;;2.30;;
57319;SDS011;43158;51.026;18.190;2022-09-01T03:40:01;3.90;;;2.30;;
57319;SDS011;43158;51.026;18.190;2022-09-01T03:42:29;3.30;;;2.10;;
57319;SDS011;43158;51.026;18.190;2022-09-01T03:44:56;2.30;;;2.00;;
57319;SDS011;43158;51.026;18.190;2022-09-01T03:47:23;3.40;;;2.20;;
57319;SDS011;43158;51.026;18.190;2022-09-01T03:49:49;4.60;;;2.10;;
57319;SDS011;43158;51.026;18.190;2022-09-01T03:52:16;3.60;;;1.80;;
57319;SDS011;43158;51.026;18.190;2022-09-01T03:54:43;3.70;;;2.70;;
57319;SDS011;43158;51.026;18.190;2022-09-01T03:57:10;3.80;;;2.00;;
57319;SDS011;43158;51.026;18.190;2022-09-01T03:59:36;2.90;;;2.20;;
57319;SDS011;43158;51.026;18.190;2022-09-01T04:02:07;3.50;;;2.40;;
57319;SDS011;43158;51.026;18.190;2022-09-01T04:04:34;3.30;;;1.90;;
57319;SDS011;43158;51.026;18.190;2022-09-01T04:07:01;3.00;;;2.00;;
57319;SDS011;43158;51.026;18.190;2022-09-01T04:09:27;6.60;;;2.60;;
57319;SDS011;43158;51.026;18.190;2022-09-01T04:11:53;2.10;;;1.90;;
57319;SDS011;43158;51.026;18.190;2022-09-01T04:14:20;5.10;;;2.30;;
57319;SDS011;43158;51.026;18.190;2022-09-01T04:16:46;2.80;;;2.20;;
57319;SDS011;43158;51.026;18.190;2022-09-01T04:19:32;5.70;;;2.20;;
57319;SDS011;43158;51.026;18.190;2022-09-01T04:22:01;2.70;;;2.40;;
57319;SDS011;43158;51.026;18.190;2022-09-01T04:24:31;4.70;;;2.40;;
57319;SDS011;43158;51.026;18.190;2022-09-01T04:26:58;4.80;;;2.10;;
57319;SDS011;43158;51.026;18.190;2022-09-01T04:29:42;5.70;;;2.30;;
57319;SDS011;43158;51.026;18.190;2022-09-01T04:32:11;4.50;;;2.20;;
57319;SDS011;43158;51.026;18.190;2022-09-01T04:34:37;2.90;;;2.30;;
57319;SDS011;43158;51.026;18.190;2022-09-01T04:37:11;3.30;;;2.70;;
57319;SDS011;43158;51.026;18.190;2022-09-01T04:39:40;2.30;;;2.00;;
57319;SDS011;43158;51.026;18.190;2022-09-01T04:42:12;2.50;;;2.10;;
57319;SDS011;43158;51.026;18.190;2022-09-01T04:44:38;6.70;;;2.30;;
57319;SDS011;43158;51.026;18.190;2022-09-01T04:47:05;3.70;;;2.50;;
57319;SDS011;43158;51.026;18.190;2022-09-01T04:49:35;5.30;;;2.40;;
57319;SDS011;43158;51.026;18.190;2022-09-01T04:52:02;5.20;;;2.00;;
57319;SDS011;43158;51.026;18.190;2022-09-01T04:54:29;2.90;;;2.60;;
57319;SDS011;43158;51.026;18.190;2022-09-01T04:56:57;3.20;;;2.30;;
57319;SDS011;43158;51.026;18.190;2022-09-01T04:59:23;4.80;;;2.40;;
57319;SDS011;43158;51.026;18.190;2022-09-01T05:01:51;3.50;;;2.40;;
57319;SDS011;43158;51.026;18.190;2022-09-01T05:04:21;3.30;;;2.00;;
57319;SDS011;43158;51.026;18.190;2022-09-01T05:09:17;4.00;;;1.90;;
57319;SDS011;43158;51.026;18.190;2022-09-01T05:11:44;8.80;;;2.50;;
57319;SDS011;43158;51.026;18.190;2022-09-01T05:14:11;3.00;;;2.30;;
57319;SDS011;43158;51.026;18.190;2022-09-01T05:16:37;4.90;;;2.00;;
57319;SDS011;43158;51.026;18.190;2022-09-01T05:21:40;2.50;;;2.30;;
57319;SDS011;43158;51.026;18.190;2022-09-01T05:24:10;4.30;;;2.30;;
57319;SDS011;43158;51.026;18.190;2022-09-01T05:26:40;3.20;;;2.10;;
57319;SDS011;43158;51.026;18.190;2022-09-01T05:29:07;6.20;;;2.20;;
57319;SDS011;43158;51.026;18.190;2022-09-01T05:31:41;2.30;;;2.00;;
57319;SDS011;43158;51.026;18.190;2022-09-01T05:34:09;3.80;;;2.10;;
57319;SDS011;43158;51.026;18.190;2022-09-01T05:36:37;3.00;;;2.10;;
57319;SDS011;43158;51.026;18.190;2022-09-01T05:39:07;4.10;;;2.00;;
57319;SDS011;43158;51.026;18.190;2022-09-01T05:44:04;2.80;;;2.10;;
57319;SDS011;43158;51.026;18.190;2022-09-01T05:46:32;2.50;;;2.00;;
57319;SDS011;43158;51.026;18.190;2022-09-01T05:49:02;5.80;;;3.60;;
57319;SDS011;43158;51.026;18.190;2022-09-01T05:51:31;3.20;;;2.40;;
57319;SDS011;43158;51.026;18.190;2022-09-01T05:54:01;3.10;;;1.80;;
57319;SDS011;43158;51.026;18.190;2022-09-01T05:56:28;3.50;;;3.10;;
57319;SDS011;43158;51.026;18.190;2022-09-01T05:58:55;3.80;;;2.20;;
57319;SDS011;43158;51.026;18.190;2022-09-01T06:01:23;2.40;;;1.90;;
57319;SDS011;43158;51.026;18.190;2022-09-01T06:03:51;2.40;;;2.20;;
57319;SDS011;43158;51.026;18.190;2022-09-01T06:06:23;3.20;;;1.70;;
57319;SDS011;43158;51.026;18.190;2022-09-01T06:08:51;4.00;;;1.80;;
57319;SDS011;43158;51.026;18.190;2022-09-01T06:11:21;3.20;;;2.00;;
57319;SDS011;43158;51.026;18.190;2022-09-01T06:13:49;2.90;;;1.80;;
57319;SDS011;43158;51.026;18.190;2022-09-01T06:16:17;2.20;;;1.80;;
57319;SDS011;43158;51.026;18.190;2022-09-01T06:18:44;2.30;;;2.00;;
57319;SDS011;43158;51.026;18.190;2022-09-01T06:21:11;3.10;;;1.70;;
57319;SDS011;43158;51.026;18.190;2022-09-01T06:23:41;3.40;;;1.80;;
57319;SDS011;43158;51.026;18.190;2022-09-01T06:26:22;3.20;;;1.80;;
57319;SDS011;43158;51.026;18.190;2022-09-01T06:28:57;3.20;;;1.50;;
57319;SDS011;43158;51.026;18.190;2022-09-01T06:31:29;5.10;;;1.80;;
57319;SDS011;43158;51.026;18.190;2022-09-01T06:33:59;2.80;;;2.00;;
57319;SDS011;43158;51.026;18.190;2022-09-01T06:36:28;4.00;;;2.00;;
57319;SDS011;43158;51.026;18.190;2022-09-01T06:41:25;5.30;;;2.00;;
57319;SDS011;43158;51.026;18.190;2022-09-01T06:43:52;3.00;;;1.40;;
57319;SDS011;43158;51.026;18.190;2022-09-01T06:46:19;3.10;;;1.80;;
57319;SDS011;43158;51.026;18.190;2022-09-01T06:48:48;2.30;;;1.60;;
57319;SDS011;43158;51.026;18.190;2022-09-01T06:51:16;3.10;;;1.80;;
57319;SDS011;43158;51.026;18.190;2022-09-01T06:56:15;1.60;;;1.20;;
57319;SDS011;43158;51.026;18.190;2022-09-01T06:58:43;2.80;;;1.30;;
57319;SDS011;43158;51.026;18.190;2022-09-01T07:01:16;2.70;;;1.50;;
57319;SDS011;43158;51.026;18.190;2022-09-01T07:03:45;1.80;;;1.20;;
57319;SDS011;43158;51.026;18.190;2022-09-01T07:06:13;1.30;;;1.20;;
57319;SDS011;43158;51.026;18.190;2022-09-01T07:08:40;2.40;;;1.10;;
57319;SDS011;43158;51.026;18.190;2022-09-01T07:11:16;2.30;;;1.20;;
57319;SDS011;43158;51.026;18.190;2022-09-01T07:13:48;3.20;;;1.10;;
57319;SDS011;43158;51.026;18.190;2022-09-01T07:16:16;9.30;;;1.60;;
57319;SDS011;43158;51.026;18.190;2022-09-01T07:18:47;3.20;;;1.20;;
57319;SDS011;43158;51.026;18.190;2022-09-01T07:21:14;2.60;;;1.10;;
57319;SDS011;43158;51.026;18.190;2022-09-01T07:23:40;3.50;;;1.10;;
57319;SDS011;43158;51.026;18.190;2022-09-01T07:26:08;2.60;;;1.30;;
57319;SDS011;43158;51.026;18.190;2022-09-01T07:28:36;2.20;;;1.30;;
57319;SDS011;43158;51.026;18.190;2022-09-01T07:31:03;4.70;;;1.10;;
57319;SDS011;43158;51.026;18.190;2022-09-01T07:33:30;2.20;;;1.00;;
57319;SDS011;43158;51.026;18.190;2022-09-01T07:35:58;7.80;;;2.10;;
57319;SDS011;43158;51.026;18.190;2022-09-01T07:38:25;3.80;;;1.00;;
57319;SDS011;43158;51.026;18.190;2022-09-01T07:40:53;3.60;;;1.10;;
57319;SDS011;43158;51.026;18.190;2022-09-01T07:43:24;2.50;;;1.60;;
57319;SDS011;43158;51.026;18.190;2022-09-01T07:45:55;3.00;;;1.00;;
57319;SDS011;43158;51.026;18.190;2022-09-01T07:48:24;1.80;;;1.20;;
57319;SDS011;43158;51.026;18.190;2022-09-01T07:50:53;2.50;;;0.80;;
57319;SDS011;43158;51.026;18.190;2022-09-01T07:53:22;1.80;;;1.10;;
57319;SDS011;43158;51.026;18.190;2022-09-01T07:55:57;2.90;;;1.00;;
57319;SDS011;43158;51.026;18.190;2022-09-01T07:58:26;3.00;;;0.90;;
57319;SDS011;43158;51.026;18.190;2022-09-01T08:00:58;4.80;;;1.10;;
57319;SDS011;43158;51.026;18.190;2022-09-01T08:03:27;4.30;;;0.90;;
57319;SDS011;43158;51.026;18.190;2022-09-01T08:05:55;2.00;;;0.70;;
57319;SDS011;43158;51.026;18.190;2022-09-01T08:08:25;3.80;;;1.00;;
57319;SDS011;43158;51.026;18.190;2022-09-01T08:10:52;1.50;;;1.00;;
57319;SDS011;43158;51.026;18.190;2022-09-01T08:13:19;3.00;;;0.60;;
57319;SDS011;43158;51.026;18.190;2022-09-01T08:15:46;2.00;;;0.70;;
57319;SDS011;43158;51.026;18.190;2022-09-01T08:18:12;0.70;;;0.60;;
57319;SDS011;43158;51.026;18.190;2022-09-01T08:20:39;2.10;;;0.80;;
57319;SDS011;43158;51.026;18.190;2022-09-01T08:23:11;3.40;;;1.00;;
57319;SDS011;43158;51.026;18.190;2022-09-01T08:25:39;3.30;;;0.80;;
57319;SDS011;43158;51.026;18.190;2022-09-01T08:28:07;1.10;;;0.60;;
57319;SDS011;43158;51.026;18.190;2022-09-01T08:30:34;2.40;;;1.00;;
57319;SDS011;43158;51.026;18.190;2022-09-01T08:33:04;1.80;;;1.20;;
57319;SDS011;43158;51.026;18.190;2022-09-01T08:35:31;1.60;;;1.00;;
57319;SDS011;43158;51.026;18.190;2022-09-01T08:37:59;0.90;;;0.70;;
57319;SDS011;43158;51.026;18.190;2022-09-01T08:40:25;1.20;;;0.70;;
57319;SDS011;43158;51.026;18.190;2022-09-01T08:43:03;1.80;;;0.70;;
57319;SDS011;43158;51.026;18.190;2022-09-01T08:45:51;1.50;;;0.80;;
57319;SDS011;43158;51.026;18.190;2022-09-01T08:48:21;7.90;;;1.00;;
57319;SDS011;43158;51.026;18.190;2022-09-01T08:51:14;1.00;;;0.70;;
57319;SDS011;43158;51.026;18.190;2022-09-01T08:54:15;1.80;;;0.90;;
57319;SDS011;43158;51.026;18.190;2022-09-01T08:56:50;2.60;;;1.00;;
57319;SDS011;43158;51.026;18.190;2022-09-01T08:59:19;1.40;;;0.60;;
57319;SDS011;43158;51.026;18.190;2022-09-01T09:09:20;0.90;;;0.70;;
57319;SDS011;43158;51.026;18.190;2022-09-01T09:14:38;2.40;;;0.80;;
57319;SDS011;43158;51.026;18.190;2022-09-01T09:17:16;2.70;;;0.60;;
57319;SDS011;43158;51.026;18.190;2022-09-01T09:19:46;2.60;;;0.60;;
57319;SDS011;43158;51.026;18.190;2022-09-01T09:22:14;1.30;;;0.50;;
57319;SDS011;43158;51.026;18.190;2022-09-01T09:27:24;1.10;;;0.50;;
57319;SDS011;43158;51.026;18.190;2022-09-01T09:29:53;0.70;;;0.60;;
57319;SDS011;43158;51.026;18.190;2022-09-01T09:32:22;0.70;;;0.60;;
57319;SDS011;43158;51.026;18.190;2022-09-01T09:40:14;0.50;;;0.50;;
57319;SDS011;43158;51.026;18.190;2022-09-01T09:45:24;0.90;;;0.60;;
57319;SDS011;43158;51.026;18.190;2022-09-01T09:47:55;1.30;;;0.50;;
57319;SDS011;43158;51.026;18.190;2022-09-01T09:52:50;3.40;;;0.50;;
57319;SDS011;43158;51.026;18.190;2022-09-01T09:55:26;1.30;;;0.60;;
57319;SDS011;43158;51.026;18.190;2022-09-01T09:57:58;1.50;;;0.60;;
57319;SDS011;43158;51.026;18.190;2022-09-01T10:02:58;1.00;;;0.60;;
57319;SDS011;43158;51.026;18.190;2022-09-01T10:05:35;1.90;;;0.50;;
57319;SDS011;43158;51.026;18.190;2022-09-01T10:08:07;0.80;;;0.50;;
57319;SDS011;43158;51.026;18.190;2022-09-01T10:10:37;1.20;;;0.60;;
57319;SDS011;43158;51.026;18.190;2022-09-01T10:13:12;1.60;;;0.50;;
57319;SDS011;43158;51.026;18.190;2022-09-01T10:15:50;0.90;;;0.40;;
57319;SDS011;43158;51.026;18.190;2022-09-01T10:18:21;0.90;;;0.60;;
57319;SDS011;43158;51.026;18.190;2022-09-01T10:20:52;2.10;;;0.60;;
57319;SDS011;43158;51.026;18.190;2022-09-01T10:23:22;1.40;;;0.60;;
57319;SDS011;43158;51.026;18.190;2022-09-01T10:25:49;0.60;;;0.50;;
57319;SDS011;43158;51.026;18.190;2022-09-01T10:28:20;2.10;;;0.50;;
57319;SDS011;43158;51.026;18.190;2022-09-01T10:30:49;1.20;;;0.60;;
57319;SDS011;43158;51.026;18.190;2022-09-01T10:33:18;0.90;;;0.50;;
57319;SDS011;43158;51.026;18.190;2022-09-01T10:35:47;1.20;;;0.50;;
57319;SDS011;43158;51.026;18.190;2022-09-01T10:38:23;1.10;;;0.40;;
57319;SDS011;43158;51.026;18.190;2022-09-01T10:40:53;0.60;;;0.40;;
57319;SDS011;43158;51.026;18.190;2022-09-01T10:43:35;1.60;;;0.50;;
57319;SDS011;43158;51.026;18.190;2022-09-01T10:48:51;0.60;;;0.50;;
57319;SDS011;43158;51.026;18.190;2022-09-01T10:56:24;1.00;;;0.50;;
57319;SDS011;43158;51.026;18.190;2022-09-01T11:04:07;1.70;;;0.50;;
57319;SDS011;43158;51.026;18.190;2022-09-01T11:11:48;1.20;;;0.50;;
57319;SDS011;43158;51.026;18.190;2022-09-01T11:14:21;0.90;;;0.40;;
57319;SDS011;43158;51.026;18.190;2022-09-01T11:27:12;0.70;;;0.60;;
57319;SDS011;43158;51.026;18.190;2022-09-01T11:30:16;0.40;;;0.40;;
57319;SDS011;43158;51.026;18.190;2022-09-01T11:32:42;0.90;;;0.50;;
57319;SDS011;43158;51.026;18.190;2022-09-01T11:35:16;0.50;;;0.50;;
57319;SDS011;43158;51.026;18.190;2022-09-01T11:37:48;0.70;;;0.50;;
57319;SDS011;43158;51.026;18.190;2022-09-01T11:40:20;2.80;;;0.50;;
57319;SDS011;43158;51.026;18.190;2022-09-01T11:42:49;0.90;;;0.50;;
57319;SDS011;43158;51.026;18.190;2022-09-01T11:47:49;2.10;;;0.50;;
57319;SDS011;43158;51.026;18.190;2022-09-01T11:52:55;0.40;;;0.40;;
57319;SDS011;43158;51.026;18.190;2022-09-01T11:57:57;1.00;;;0.60;;
57319;SDS011;43158;51.026;18.190;2022-09-01T12:00:35;2.30;;;0.70;;
57319;SDS011;43158;51.026;18.190;2022-09-01T12:03:26;0.60;;;0.60;;
57319;SDS011;43158;51.026;18.190;2022-09-01T12:05:51;0.70;;;0.60;;
57319;SDS011;43158;51.026;18.190;2022-09-01T12:08:23;1.40;;;0.60;;
57319;SDS011;43158;51.026;18.190;2022-09-01T12:13:29;0.60;;;0.60;;
57319;SDS011;43158;51.026;18.190;2022-09-01T12:15:56;1.70;;;0.70;;
57319;SDS011;43158;51.026;18.190;2022-09-01T12:18:31;0.90;;;0.90;;
57319;SDS011;43158;51.026;18.190;2022-09-01T12:21:00;1.50;;;1.40;;
57319;SDS011;43158;51.026;18.190;2022-09-01T12:23:31;1.30;;;1.20;;
57319;SDS011;43158;51.026;18.190;2022-09-01T12:25:59;4.30;;;0.50;;
57319;SDS011;43158;51.026;18.190;2022-09-01T12:28:28;2.60;;;0.60;;
57319;SDS011;43158;51.026;18.190;2022-09-01T12:30:55;1.80;;;0.70;;
57319;SDS011;43158;51.026;18.190;2022-09-01T12:33:24;1.70;;;0.50;;
57319;SDS011;43158;51.026;18.190;2022-09-01T12:35:51;1.90;;;0.60;;
57319;SDS011;43158;51.026;18.190;2022-09-01T12:38:50;0.60;;;0.60;;
57319;SDS011;43158;51.026;18.190;2022-09-01T12:41:31;0.60;;;0.60;;
57319;SDS011;43158;51.026;18.190;2022-09-01T12:46:52;2.20;;;0.60;;
57319;SDS011;43158;51.026;18.190;2022-09-01T12:49:38;1.10;;;0.60;;
57319;SDS011;43158;51.026;18.190;2022-09-01T12:52:12;1.60;;;0.60;;
57319;SDS011;43158;51.026;18.190;2022-09-01T12:57:35;2.80;;;0.50;;
57319;SDS011;43158;51.026;18.190;2022-09-01T13:00:14;3.20;;;0.60;;
57319;SDS011;43158;51.026;18.190;2022-09-01T13:02:45;1.80;;;0.90;;
57319;SDS011;43158;51.026;18.190;2022-09-01T13:05:44;1.70;;;0.60;;
57319;SDS011;43158;51.026;18.190;2022-09-01T13:08:19;0.90;;;0.50;;
57319;SDS011;43158;51.026;18.190;2022-09-01T13:10:48;2.60;;;0.50;;
57319;SDS011;43158;51.026;18.190;2022-09-01T13:13:18;1.20;;;0.50;;
57319;SDS011;43158;51.026;18.190;2022-09-01T13:15:46;1.50;;;0.50;;
57319;SDS011;43158;51.026;18.190;2022-09-01T13:18:15;0.70;;;0.60;;
57319;SDS011;43158;51.026;18.190;2022-09-01T13:20:42;0.80;;;0.40;;
57319;SDS011;43158;51.026;18.190;2022-09-01T13:23:09;0.70;;;0.40;;
57319;SDS011;43158;51.026;18.190;2022-09-01T13:25:37;0.60;;;0.40;;
57319;SDS011;43158;51.026;18.190;2022-09-01T13:28:09;2.60;;;0.50;;
57319;SDS011;43158;51.026;18.190;2022-09-01T13:30:36;0.40;;;0.40;;
57319;SDS011;43158;51.026;18.190;2022-09-01T13:33:03;0.40;;;0.40;;
57319;SDS011;43158;51.026;18.190;2022-09-01T13:35:29;1.00;;;0.50;;
57319;SDS011;43158;51.026;18.190;2022-09-01T13:37:56;0.60;;;0.50;;
57319;SDS011;43158;51.026;18.190;2022-09-01T13:40:22;1.10;;;0.40;;
57319;SDS011;43158;51.026;18.190;2022-09-01T13:42:49;1.60;;;0.50;;
57319;SDS011;43158;51.026;18.190;2022-09-01T13:45:18;2.00;;;0.40;;
57319;SDS011;43158;51.026;18.190;2022-09-01T13:47:46;1.80;;;0.60;;
57319;SDS011;43158;51.026;18.190;2022-09-01T13:50:17;2.30;;;0.40;;
57319;SDS011;43158;51.026;18.190;2022-09-01T13:52:48;1.50;;;0.40;;
57319;SDS011;43158;51.026;18.190;2022-09-01T13:55:18;0.80;;;0.60;;
57319;SDS011;43158;51.026;18.190;2022-09-01T13:57:49;0.80;;;0.50;;
57319;SDS011;43158;51.026;18.190;2022-09-01T14:00:17;0.50;;;0.50;;
57319;SDS011;43158;51.026;18.190;2022-09-01T14:02:46;0.60;;;0.50;;
57319;SDS011;43158;51.026;18.190;2022-09-01T14:05:14;2.00;;;0.60;;
57319;SDS011;43158;51.026;18.190;2022-09-01T14:07:45;0.80;;;0.40;;
57319;SDS011;43158;51.026;18.190;2022-09-01T14:10:12;1.10;;;0.50;;
57319;SDS011;43158;51.026;18.190;2022-09-01T14:12:39;3.10;;;0.60;;
57319;SDS011;43158;51.026;18.190;2022-09-01T14:15:07;2.20;;;0.70;;
57319;SDS011;43158;51.026;18.190;2022-09-01T14:17:35;3.60;;;0.50;;
57319;SDS011;43158;51.026;18.190;2022-09-01T14:20:03;0.70;;;0.60;;
57319;SDS011;43158;51.026;18.190;2022-09-01T14:22:32;0.40;;;0.40;;
57319;SDS011;43158;51.026;18.190;2022-09-01T14:24:59;0.30;;;0.30;;
57319;SDS011;43158;51.026;18.190;2022-09-01T14:27:26;1.60;;;0.50;;
57319;SDS011;43158;51.026;18.190;2022-09-01T14:29:52;1.10;;;0.60;;
57319;SDS011;43158;51.026;18.190;2022-09-01T14:32:18;1.40;;;0.40;;
57319;SDS011;43158;51.026;18.190;2022-09-01T14:34:55;1.60;;;0.40;;
57319;SDS011;43158;51.026;18.190;2022-09-01T14:37:21;1.50;;;0.40;;
57319;SDS011;43158;51.026;18.190;2022-09-01T14:39:52;3.80;;;0.40;;
57319;SDS011;43158;51.026;18.190;2022-09-01T14:42:19;2.30;;;0.50;;
57319;SDS011;43158;51.026;18.190;2022-09-01T14:44:46;1.70;;;0.30;;
57319;SDS011;43158;51.026;18.190;2022-09-01T14:47:13;3.40;;;0.50;;
57319;SDS011;43158;51.026;18.190;2022-09-01T14:49:41;1.70;;;0.50;;
57319;SDS011;43158;51.026;18.190;2022-09-01T14:52:08;0.60;;;0.50;;
57319;SDS011;43158;51.026;18.190;2022-09-01T14:54:36;1.30;;;0.50;;
57319;SDS011;43158;51.026;18.190;2022-09-01T14:57:03;0.80;;;0.40;;
57319;SDS011;43158;51.026;18.190;2022-09-01T14:59:31;0.70;;;0.60;;
57319;SDS011;43158;51.026;18.190;2022-09-01T15:01:57;0.40;;;0.40;;
57319;SDS011;43158;51.026;18.190;2022-09-01T15:04:24;1.60;;;0.40;;
57319;SDS011;43158;51.026;18.190;2022-09-01T15:06:52;0.30;;;0.30;;
57319;SDS011;43158;51.026;18.190;2022-09-01T15:09:19;1.10;;;0.50;;
57319;SDS011;43158;51.026;18.190;2022-09-01T15:11:46;0.50;;;0.40;;
57319;SDS011;43158;51.026;18.190;2022-09-01T15:14:12;0.30;;;0.30;;
57319;SDS011;43158;51.026;18.190;2022-09-01T15:16:38;2.10;;;0.60;;
57319;SDS011;43158;51.026;18.190;2022-09-01T15:19:06;0.50;;;0.40;;
57319;SDS011;43158;51.026;18.190;2022-09-01T15:21:34;0.50;;;0.40;;
57319;SDS011;43158;51.026;18.190;2022-09-01T15:24:00;0.80;;;0.50;;
57319;SDS011;43158;51.026;18.190;2022-09-01T15:26:27;0.50;;;0.50;;
57319;SDS011;43158;51.026;18.190;2022-09-01T15:28:54;2.90;;;0.50;;
57319;SDS011;43158;51.026;18.190;2022-09-01T15:31:24;1.40;;;1.20;;
57319;SDS011;43158;51.026;18.190;2022-09-01T15:33:54;3.40;;;2.10;;
57319;SDS011;43158;51.026;18.190;2022-09-01T15:36:22;4.90;;;2.70;;
57319;SDS011;43158;51.026;18.190;2022-09-01T15:41:16;4.40;;;1.90;;
57319;SDS011;43158;51.026;18.190;2022-09-01T15:43:43;8.20;;;3.50;;
57319;SDS011;43158;51.026;18.190;2022-09-01T15:46:09;4.90;;;2.20;;
57319;SDS011;43158;51.026;18.190;2022-09-01T15:48:37;11.40;;;4.60;;
57319;SDS011;43158;51.026;18.190;2022-09-01T15:51:26;3.00;;;1.20;;
57319;SDS011;43158;51.026;18.190;2022-09-01T15:53:50;1.80;;;1.40;;
57319;SDS011;43158;51.026;18.190;2022-09-01T15:56:17;5.60;;;3.20;;
57319;SDS011;43158;51.026;18.190;2022-09-01T15:58:48;7.70;;;4.50;;
57319;SDS011;43158;51.026;18.190;2022-09-01T16:01:15;3.60;;;2.20;;
57319;SDS011;43158;51.026;18.190;2022-09-01T16:03:42;2.80;;;1.30;;
57319;SDS011;43158;51.026;18.190;2022-09-01T16:06:08;13.80;;;3.50;;
57319;SDS011;43158;51.026;18.190;2022-09-01T16:08:34;3.30;;;1.20;;
57319;SDS011;43158;51.026;18.190;2022-09-01T16:11:04;0.90;;;0.80;;
57319;SDS011;43158;51.026;18.190;2022-09-01T16:13:35;1.90;;;0.80;;
57319;SDS011;43158;51.026;18.190;2022-09-01T16:18:42;3.90;;;1.90;;
57319;SDS011;43158;51.026;18.190;2022-09-01T16:21:16;1.40;;;0.90;;
57319;SDS011;43158;51.026;18.190;2022-09-01T16:23:50;2.00;;;0.80;;